Forside
METAR-TAF:

METAR-TAF

Lufthavne :

Warrensburg, Missouri, USA

Breddekreds: 38-47-03N, længdekreds: 093-48-10W, højde: 243 m

Aktuelle vejr

Denne rapport blev lavet for 39 minutter siden, kl. 21:55 UTC
Vind 5 kt fra syd
Temperatur 12°C
Fugtighed 47%
Tryk 1017 hPa
Sigt: 16.1 km
skyfri

METAR: KRCM 162155Z AUTO 17005KT 10SM CLR 12/01 A3004 RMK AO2

Tid: 16:34 (22:34 UTC)


TAF: fraværende

Vejrobservationer og prognoser fra mere end 4000 lufthavne (METAR og TAF).

De gule og røde prikker repræsenterer de meteorologiske stationer.

Flyt musen over at se navnet på stationen.

Så klik over at se vejr observationer og prognoser.

At skifte det kort: Klik på de grønne knapper med et sort kors for at zoome ind; på den grønne knap med en bindestreg for at zoome ud; eller på de grønne pile for tilstødende kort.


METAR-TAF: